sensor_id;sensor_type;location;lat;lon;timestamp;temperature;humidity
1413;DHT22;701;52.526;13.408;2023-08-12T00:01:51;19.70;18.40
1413;DHT22;701;52.526;13.408;2023-08-12T00:04:16;19.60;18.60
1413;DHT22;701;52.526;13.408;2023-08-12T00:06:43;19.60;18.50
1413;DHT22;701;52.526;13.408;2023-08-12T00:09:09;19.50;18.50
1413;DHT22;701;52.526;13.408;2023-08-12T00:11:37;19.50;18.50
1413;DHT22;701;52.526;13.408;2023-08-12T00:14:04;19.50;18.70
1413;DHT22;701;52.526;13.408;2023-08-12T00:16:30;19.50;18.70
1413;DHT22;701;52.526;13.408;2023-08-12T00:18:55;19.40;18.80
1413;DHT22;701;52.526;13.408;2023-08-12T00:21:21;19.40;19.40
1413;DHT22;701;52.526;13.408;2023-08-12T00:23:47;19.40;19.10
1413;DHT22;701;52.526;13.408;2023-08-12T00:26:15;19.30;19.40
1413;DHT22;701;52.526;13.408;2023-08-12T00:28:41;19.30;19.40
1413;DHT22;701;52.526;13.408;2023-08-12T00:31:07;19.30;19.40
1413;DHT22;701;52.526;13.408;2023-08-12T00:33:33;19.20;19.30
1413;DHT22;701;52.526;13.408;2023-08-12T00:35:59;19.20;19.40
1413;DHT22;701;52.526;13.408;2023-08-12T00:38:27;19.30;19.40
1413;DHT22;701;52.526;13.408;2023-08-12T00:40:53;19.20;19.30
1413;DHT22;701;52.526;13.408;2023-08-12T00:43:19;19.30;19.40
1413;DHT22;701;52.526;13.408;2023-08-12T00:45:45;19.20;19.30
1413;DHT22;701;52.526;13.408;2023-08-12T00:48:11;19.30;19.70
1413;DHT22;701;52.526;13.408;2023-08-12T00:50:37;19.30;19.40
1413;DHT22;701;52.526;13.408;2023-08-12T00:53:04;19.30;19.40
1413;DHT22;701;52.526;13.408;2023-08-12T00:55:33;19.30;19.40
1413;DHT22;701;52.526;13.408;2023-08-12T00:57:59;19.40;19.50
1413;DHT22;701;52.526;13.408;2023-08-12T01:00:25;19.40;19.50
1413;DHT22;701;52.526;13.408;2023-08-12T01:02:51;19.40;19.50
1413;DHT22;701;52.526;13.408;2023-08-12T01:05:18;19.40;19.50
1413;DHT22;701;52.526;13.408;2023-08-12T01:07:45;19.50;19.60
1413;DHT22;701;52.526;13.408;2023-08-12T01:10:13;19.50;19.50
1413;DHT22;701;52.526;13.408;2023-08-12T01:12:55;19.50;19.50
1413;DHT22;701;52.526;13.408;2023-08-12T01:15:24;19.50;19.60
1413;DHT22;701;52.526;13.408;2023-08-12T01:17:54;19.40;19.50
1413;DHT22;701;52.526;13.408;2023-08-12T01:20:21;19.40;19.50
1413;DHT22;701;52.526;13.408;2023-08-12T01:22:57;19.40;19.50
1413;DHT22;701;52.526;13.408;2023-08-12T01:25:26;19.40;19.50
1413;DHT22;701;52.526;13.408;2023-08-12T01:27:52;19.40;19.50
1413;DHT22;701;52.526;13.408;2023-08-12T01:30:20;19.40;19.50
1413;DHT22;701;52.526;13.408;2023-08-12T01:33:01;19.30;19.40
1413;DHT22;701;52.526;13.408;2023-08-12T01:35:35;19.30;19.40
1413;DHT22;701;52.526;13.408;2023-08-12T01:38:06;19.30;19.40
1413;DHT22;701;52.526;13.408;2023-08-12T01:43:20;19.20;19.60
1413;DHT22;701;52.526;13.408;2023-08-12T01:45:46;19.20;19.30
1413;DHT22;701;52.526;13.408;2023-08-12T01:48:12;19.20;19.40
1413;DHT22;701;52.526;13.408;2023-08-12T01:50:37;19.10;19.70
1413;DHT22;701;52.526;13.408;2023-08-12T01:53:03;19.20;19.70
1413;DHT22;701;52.526;13.408;2023-08-12T01:55:29;19.10;20.20
1413;DHT22;701;52.526;13.408;2023-08-12T01:57:55;19.00;19.70
1413;DHT22;701;52.526;13.408;2023-08-12T02:00:21;19.10;20.00
1413;DHT22;701;52.526;13.408;2023-08-12T02:02:46;19.10;19.90
1413;DHT22;701;52.526;13.408;2023-08-12T02:05:13;19.00;19.90
1413;DHT22;701;52.526;13.408;2023-08-12T02:07:39;19.00;19.90
1413;DHT22;701;52.526;13.408;2023-08-12T02:10:05;19.00;19.90
1413;DHT22;701;52.526;13.408;2023-08-12T02:12:31;19.00;20.40
1413;DHT22;701;52.526;13.408;2023-08-12T02:14:57;19.00;20.00
1413;DHT22;701;52.526;13.408;2023-08-12T02:17:23;19.00;20.00
1413;DHT22;701;52.526;13.408;2023-08-12T02:19:51;19.00;20.10
1413;DHT22;701;52.526;13.408;2023-08-12T02:22:16;18.90;20.00
1413;DHT22;701;52.526;13.408;2023-08-12T02:24:42;19.00;20.20
1413;DHT22;701;52.526;13.408;2023-08-12T02:27:08;19.00;20.20
1413;DHT22;701;52.526;13.408;2023-08-12T02:29:34;19.00;20.10
1413;DHT22;701;52.526;13.408;2023-08-12T02:31:59;19.00;20.20
1413;DHT22;701;52.526;13.408;2023-08-12T02:34:25;19.10;20.10
1413;DHT22;701;52.526;13.408;2023-08-12T02:36:51;19.10;20.00
1413;DHT22;701;52.526;13.408;2023-08-12T02:39:16;19.10;19.90
1413;DHT22;701;52.526;13.408;2023-08-12T02:41:42;19.10;19.80
1413;DHT22;701;52.526;13.408;2023-08-12T02:44:08;19.20;19.80
1413;DHT22;701;52.526;13.408;2023-08-12T02:46:34;19.20;19.60
1413;DHT22;701;52.526;13.408;2023-08-12T02:48:59;19.20;19.70
1413;DHT22;701;52.526;13.408;2023-08-12T02:51:25;19.20;19.50
1413;DHT22;701;52.526;13.408;2023-08-12T02:53:51;19.20;19.40
1413;DHT22;701;52.526;13.408;2023-08-12T02:56:16;19.30;19.40
1413;DHT22;701;52.526;13.408;2023-08-12T02:58:42;19.30;19.40
1413;DHT22;701;52.526;13.408;2023-08-12T03:01:08;19.20;19.40
1413;DHT22;701;52.526;13.408;2023-08-12T03:03:34;19.30;19.40
1413;DHT22;701;52.526;13.408;2023-08-12T03:05:59;19.20;19.40
1413;DHT22;701;52.526;13.408;2023-08-12T03:08:27;19.20;19.40
1413;DHT22;701;52.526;13.408;2023-08-12T03:11:00;19.20;19.50
1413;DHT22;701;52.526;13.408;2023-08-12T03:13:26;19.20;19.60
1413;DHT22;701;52.526;13.408;2023-08-12T03:15:52;19.20;19.30
1413;DHT22;701;52.526;13.408;2023-08-12T03:18:18;19.20;19.30
1413;DHT22;701;52.526;13.408;2023-08-12T03:20:44;19.20;19.30
1413;DHT22;701;52.526;13.408;2023-08-12T03:23:10;19.10;19.30
1413;DHT22;701;52.526;13.408;2023-08-12T03:25:37;19.10;19.30
1413;DHT22;701;52.526;13.408;2023-08-12T03:28:03;19.10;19.40
1413;DHT22;701;52.526;13.408;2023-08-12T03:30:29;19.10;19.50
1413;DHT22;701;52.526;13.408;2023-08-12T03:32:56;19.00;19.40
1413;DHT22;701;52.526;13.408;2023-08-12T03:35:24;19.00;19.40
1413;DHT22;701;52.526;13.408;2023-08-12T03:37:50;19.00;19.30
1413;DHT22;701;52.526;13.408;2023-08-12T03:40:18;19.00;19.50
1413;DHT22;701;52.526;13.408;2023-08-12T03:42:46;19.00;19.60
1413;DHT22;701;52.526;13.408;2023-08-12T03:45:12;19.00;19.80
1413;DHT22;701;52.526;13.408;2023-08-12T03:47:38;18.90;19.80
1413;DHT22;701;52.526;13.408;2023-08-12T03:50:04;18.90;19.90
1413;DHT22;701;52.526;13.408;2023-08-12T03:52:31;18.90;19.90
1413;DHT22;701;52.526;13.408;2023-08-12T03:54:57;18.90;19.80
1413;DHT22;701;52.526;13.408;2023-08-12T03:57:23;18.80;19.70
1413;DHT22;701;52.526;13.408;2023-08-12T03:59:49;18.80;19.90
1413;DHT22;701;52.526;13.408;2023-08-12T04:02:15;18.80;20.10
1413;DHT22;701;52.526;13.408;2023-08-12T04:04:41;18.80;19.90
1413;DHT22;701;52.526;13.408;2023-08-12T04:07:08;18.80;20.10
1413;DHT22;701;52.526;13.408;2023-08-12T04:09:34;18.80;19.90
1413;DHT22;701;52.526;13.408;2023-08-12T04:11:59;18.80;20.00
1413;DHT22;701;52.526;13.408;2023-08-12T04:14:25;18.80;20.10
1413;DHT22;701;52.526;13.408;2023-08-12T04:16:51;18.80;19.90
1413;DHT22;701;52.526;13.408;2023-08-12T04:19:17;18.80;19.80
1413;DHT22;701;52.526;13.408;2023-08-12T04:21:42;18.80;19.80
1413;DHT22;701;52.526;13.408;2023-08-12T04:24:12;18.80;19.80
1413;DHT22;701;52.526;13.408;2023-08-12T04:26:38;18.80;19.70
1413;DHT22;701;52.526;13.408;2023-08-12T04:29:05;18.80;19.70
1413;DHT22;701;52.526;13.408;2023-08-12T04:31:33;18.80;19.80
1413;DHT22;701;52.526;13.408;2023-08-12T04:33:59;18.90;19.90
1413;DHT22;701;52.526;13.408;2023-08-12T04:36:26;18.90;19.80
1413;DHT22;701;52.526;13.408;2023-08-12T04:38:52;18.90;19.90
1413;DHT22;701;52.526;13.408;2023-08-12T04:41:18;18.90;19.80
1413;DHT22;701;52.526;13.408;2023-08-12T04:43:44;19.00;19.70
1413;DHT22;701;52.526;13.408;2023-08-12T04:46:11;19.00;19.60
1413;DHT22;701;52.526;13.408;2023-08-12T04:48:36;19.00;19.20
1413;DHT22;701;52.526;13.408;2023-08-12T04:51:02;19.10;19.30
1413;DHT22;701;52.526;13.408;2023-08-12T04:53:29;19.10;19.30
1413;DHT22;701;52.526;13.408;2023-08-12T04:55:55;19.20;19.30
1413;DHT22;701;52.526;13.408;2023-08-12T04:58:22;19.20;19.40
1413;DHT22;701;52.526;13.408;2023-08-12T05:00:49;19.30;19.20
1413;DHT22;701;52.526;13.408;2023-08-12T05:03:16;19.40;19.00
1413;DHT22;701;52.526;13.408;2023-08-12T05:05:42;19.50;18.90
1413;DHT22;701;52.526;13.408;2023-08-12T05:08:08;19.60;18.60
1413;DHT22;701;52.526;13.408;2023-08-12T05:10:34;19.70;18.40
1413;DHT22;701;52.526;13.408;2023-08-12T05:13:00;19.90;18.10
1413;DHT22;701;52.526;13.408;2023-08-12T05:15:26;20.10;17.80
1413;DHT22;701;52.526;13.408;2023-08-12T05:17:52;20.20;17.20
1413;DHT22;701;52.526;13.408;2023-08-12T05:20:21;20.40;16.90
1413;DHT22;701;52.526;13.408;2023-08-12T05:22:47;20.60;16.50
1413;DHT22;701;52.526;13.408;2023-08-12T05:25:13;20.80;16.00
1413;DHT22;701;52.526;13.408;2023-08-12T05:27:38;21.10;15.10
1413;DHT22;701;52.526;13.408;2023-08-12T05:30:05;21.30;14.20
1413;DHT22;701;52.526;13.408;2023-08-12T05:32:31;21.50;14.10
1413;DHT22;701;52.526;13.408;2023-08-12T05:34:56;21.80;13.50
1413;DHT22;701;52.526;13.408;2023-08-12T05:37:22;22.10;13.50
1413;DHT22;701;52.526;13.408;2023-08-12T05:39:48;22.40;12.90
1413;DHT22;701;52.526;13.408;2023-08-12T05:42:13;22.50;12.10
1413;DHT22;701;52.526;13.408;2023-08-12T05:44:41;22.70;11.50
1413;DHT22;701;52.526;13.408;2023-08-12T05:47:07;22.90;11.00
1413;DHT22;701;52.526;13.408;2023-08-12T05:49:33;23.10;10.50
1413;DHT22;701;52.526;13.408;2023-08-12T05:51:59;23.20;10.30
1413;DHT22;701;52.526;13.408;2023-08-12T05:54:24;23.30;10.30
1413;DHT22;701;52.526;13.408;2023-08-12T05:56:50;23.30;10.00
1413;DHT22;701;52.526;13.408;2023-08-12T05:59:16;23.30;9.80
1413;DHT22;701;52.526;13.408;2023-08-12T06:01:42;23.30;9.70
1413;DHT22;701;52.526;13.408;2023-08-12T06:04:07;23.30;9.60
1413;DHT22;701;52.526;13.408;2023-08-12T06:06:33;23.40;9.60
1413;DHT22;701;52.526;13.408;2023-08-12T06:08:59;23.60;9.50
1413;DHT22;701;52.526;13.408;2023-08-12T06:11:24;23.70;9.00
1413;DHT22;701;52.526;13.408;2023-08-12T06:13:50;23.80;8.70
1413;DHT22;701;52.526;13.408;2023-08-12T06:16:16;23.90;8.60
1413;DHT22;701;52.526;13.408;2023-08-12T06:18:42;24.00;8.20
1413;DHT22;701;52.526;13.408;2023-08-12T06:21:08;24.10;8.10
1413;DHT22;701;52.526;13.408;2023-08-12T06:23:33;24.20;7.90
1413;DHT22;701;52.526;13.408;2023-08-12T06:25:59;24.20;7.40
1413;DHT22;701;52.526;13.408;2023-08-12T06:28:25;24.30;7.40
1413;DHT22;701;52.526;13.408;2023-08-12T06:30:50;24.30;7.40
1413;DHT22;701;52.526;13.408;2023-08-12T06:33:16;24.40;7.50
1413;DHT22;701;52.526;13.408;2023-08-12T06:35:42;24.50;7.60
1413;DHT22;701;52.526;13.408;2023-08-12T06:38:08;24.70;7.30
1413;DHT22;701;52.526;13.408;2023-08-12T06:40:37;24.80;7.00
1413;DHT22;701;52.526;13.408;2023-08-12T06:43:02;24.90;6.50
1413;DHT22;701;52.526;13.408;2023-08-12T06:45:28;25.10;6.40
1413;DHT22;701;52.526;13.408;2023-08-12T06:47:54;25.20;6.20
1413;DHT22;701;52.526;13.408;2023-08-12T06:50:20;25.30;5.90
1413;DHT22;701;52.526;13.408;2023-08-12T06:52:45;25.50;5.70
1413;DHT22;701;52.526;13.408;2023-08-12T06:55:11;25.70;5.30
1413;DHT22;701;52.526;13.408;2023-08-12T06:57:37;26.00;4.40
1413;DHT22;701;52.526;13.408;2023-08-12T07:00:03;26.30;4.60
1413;DHT22;701;52.526;13.408;2023-08-12T07:02:30;26.60;3.70
1413;DHT22;701;52.526;13.408;2023-08-12T07:04:56;26.80;3.10
1413;DHT22;701;52.526;13.408;2023-08-12T07:07:22;26.90;2.70
1413;DHT22;701;52.526;13.408;2023-08-12T07:09:48;27.10;1.90
1413;DHT22;701;52.526;13.408;2023-08-12T07:12:14;27.30;1.90
1413;DHT22;701;52.526;13.408;2023-08-12T07:14:39;27.50;1.20
1413;DHT22;701;52.526;13.408;2023-08-12T07:17:05;27.90;1.30
1413;DHT22;701;52.526;13.408;2023-08-12T07:19:31;28.20;1.00
1413;DHT22;701;52.526;13.408;2023-08-12T07:21:57;28.50;1.00
1413;DHT22;701;52.526;13.408;2023-08-12T07:24:23;28.80;1.00
1413;DHT22;701;52.526;13.408;2023-08-12T07:26:49;29.10;1.00
1413;DHT22;701;52.526;13.408;2023-08-12T07:29:14;29.70;1.00
1413;DHT22;701;52.526;13.408;2023-08-12T07:31:40;31.30;1.00
1413;DHT22;701;52.526;13.408;2023-08-12T07:34:06;32.50;1.00
1413;DHT22;701;52.526;13.408;2023-08-12T07:36:32;33.10;1.00
1413;DHT22;701;52.526;13.408;2023-08-12T07:38:58;33.30;1.00
1413;DHT22;701;52.526;13.408;2023-08-12T07:41:24;33.10;1.00
1413;DHT22;701;52.526;13.408;2023-08-12T07:43:53;32.90;1.00
1413;DHT22;701;52.526;13.408;2023-08-12T07:46:19;32.50;1.00
1413;DHT22;701;52.526;13.408;2023-08-12T07:48:44;32.30;1.00
1413;DHT22;701;52.526;13.408;2023-08-12T07:51:10;32.00;1.00
1413;DHT22;701;52.526;13.408;2023-08-12T07:53:36;31.90;1.00
1413;DHT22;701;52.526;13.408;2023-08-12T07:56:02;31.60;1.00
1413;DHT22;701;52.526;13.408;2023-08-12T07:58:27;31.30;1.00
1413;DHT22;701;52.526;13.408;2023-08-12T08:00:54;31.00;1.00
1413;DHT22;701;52.526;13.408;2023-08-12T08:03:19;30.70;1.00
1413;DHT22;701;52.526;13.408;2023-08-12T08:05:45;30.50;1.00
1413;DHT22;701;52.526;13.408;2023-08-12T08:08:14;30.50;1.00
1413;DHT22;701;52.526;13.408;2023-08-12T08:10:40;30.40;1.00
1413;DHT22;701;52.526;13.408;2023-08-12T08:13:05;30.30;1.00
1413;DHT22;701;52.526;13.408;2023-08-12T08:15:31;30.20;1.00
1413;DHT22;701;52.526;13.408;2023-08-12T08:17:57;30.00;1.00
1413;DHT22;701;52.526;13.408;2023-08-12T08:20:23;29.80;1.00
1413;DHT22;701;52.526;13.408;2023-08-12T08:22:48;29.70;1.00
1413;DHT22;701;52.526;13.408;2023-08-12T08:25:14;29.50;1.00
1413;DHT22;701;52.526;13.408;2023-08-12T08:27:40;29.20;1.00
1413;DHT22;701;52.526;13.408;2023-08-12T08:30:09;29.10;1.00
1413;DHT22;701;52.526;13.408;2023-08-12T08:32:35;28.80;1.00
1413;DHT22;701;52.526;13.408;2023-08-12T08:35:00;28.60;1.00
1413;DHT22;701;52.526;13.408;2023-08-12T08:37:26;28.40;1.00
1413;DHT22;701;52.526;13.408;2023-08-12T08:39:52;28.20;1.00
1413;DHT22;701;52.526;13.408;2023-08-12T08:42:20;27.90;1.00
1413;DHT22;701;52.526;13.408;2023-08-12T08:44:46;27.60;1.00
1413;DHT22;701;52.526;13.408;2023-08-12T08:47:17;27.30;1.00
1413;DHT22;701;52.526;13.408;2023-08-12T08:49:45;27.10;1.30
1413;DHT22;701;52.526;13.408;2023-08-12T08:52:12;26.80;2.20
1413;DHT22;701;52.526;13.408;2023-08-12T08:54:39;26.60;2.90
1413;DHT22;701;52.526;13.408;2023-08-12T08:57:05;26.50;3.50
1413;DHT22;701;52.526;13.408;2023-08-12T08:59:31;26.30;3.80
1413;DHT22;701;52.526;13.408;2023-08-12T09:01:57;26.30;4.20
1413;DHT22;701;52.526;13.408;2023-08-12T09:04:25;26.30;4.60
1413;DHT22;701;52.526;13.408;2023-08-12T09:06:52;26.20;4.50
1413;DHT22;701;52.526;13.408;2023-08-12T09:09:20;26.20;4.50
1413;DHT22;701;52.526;13.408;2023-08-12T09:11:47;26.20;5.20
1413;DHT22;701;52.526;13.408;2023-08-12T09:14:13;26.20;5.10
1413;DHT22;701;52.526;13.408;2023-08-12T09:16:40;26.30;5.20
1413;DHT22;701;52.526;13.408;2023-08-12T09:19:06;26.30;5.20
1413;DHT22;701;52.526;13.408;2023-08-12T09:21:31;26.40;5.10
1413;DHT22;701;52.526;13.408;2023-08-12T09:24:02;26.40;5.30
1413;DHT22;701;52.526;13.408;2023-08-12T09:26:30;26.40;5.50
1413;DHT22;701;52.526;13.408;2023-08-12T09:28:58;26.60;5.40
1413;DHT22;701;52.526;13.408;2023-08-12T09:31:26;26.80;4.80
1413;DHT22;701;52.526;13.408;2023-08-12T09:33:57;27.30;4.30
1413;DHT22;701;52.526;13.408;2023-08-12T09:36:23;28.00;3.30
1413;DHT22;701;52.526;13.408;2023-08-12T09:38:49;28.60;2.10
1413;DHT22;701;52.526;13.408;2023-08-12T09:41:15;29.20;1.40
1413;DHT22;701;52.526;13.408;2023-08-12T09:43:44;29.70;1.00
1413;DHT22;701;52.526;13.408;2023-08-12T09:46:13;30.00;1.00
1413;DHT22;701;52.526;13.408;2023-08-12T09:48:40;30.20;1.00
1413;DHT22;701;52.526;13.408;2023-08-12T09:51:07;30.10;1.00
1413;DHT22;701;52.526;13.408;2023-08-12T09:53:33;30.00;1.00
1413;DHT22;701;52.526;13.408;2023-08-12T09:56:11;29.80;1.00
1413;DHT22;701;52.526;13.408;2023-08-12T09:58:39;29.70;1.00
1413;DHT22;701;52.526;13.408;2023-08-12T10:01:10;29.60;1.00
1413;DHT22;701;52.526;13.408;2023-08-12T10:03:37;29.50;1.00
1413;DHT22;701;52.526;13.408;2023-08-12T10:06:03;29.50;1.00
1413;DHT22;701;52.526;13.408;2023-08-12T10:08:29;29.70;1.00
1413;DHT22;701;52.526;13.408;2023-08-12T10:10:56;29.90;1.00
1413;DHT22;701;52.526;13.408;2023-08-12T10:13:22;30.10;1.00
1413;DHT22;701;52.526;13.408;2023-08-12T10:15:49;30.10;1.00
1413;DHT22;701;52.526;13.408;2023-08-12T10:18:15;30.20;1.00
1413;DHT22;701;52.526;13.408;2023-08-12T10:20:43;30.10;1.00
1413;DHT22;701;52.526;13.408;2023-08-12T10:23:14;30.00;1.00
1413;DHT22;701;52.526;13.408;2023-08-12T10:25:41;29.80;1.00
1413;DHT22;701;52.526;13.408;2023-08-12T10:28:08;29.70;1.00
1413;DHT22;701;52.526;13.408;2023-08-12T10:30:34;29.70;1.00
1413;DHT22;701;52.526;13.408;2023-08-12T10:33:01;29.70;1.00
1413;DHT22;701;52.526;13.408;2023-08-12T10:35:44;29.80;1.00
1413;DHT22;701;52.526;13.408;2023-08-12T10:38:12;29.90;1.00
1413;DHT22;701;52.526;13.408;2023-08-12T10:40:38;29.90;1.00
1413;DHT22;701;52.526;13.408;2023-08-12T10:43:04;30.00;1.00
1413;DHT22;701;52.526;13.408;2023-08-12T10:45:52;30.10;1.00
1413;DHT22;701;52.526;13.408;2023-08-12T10:48:25;30.10;1.00
1413;DHT22;701;52.526;13.408;2023-08-12T10:50:55;30.10;1.00
1413;DHT22;701;52.526;13.408;2023-08-12T10:53:28;30.20;1.00
1413;DHT22;701;52.526;13.408;2023-08-12T10:56:03;30.20;1.00
1413;DHT22;701;52.526;13.408;2023-08-12T10:58:37;30.30;1.00
1413;DHT22;701;52.526;13.408;2023-08-12T11:01:13;30.30;1.00
1413;DHT22;701;52.526;13.408;2023-08-12T11:03:42;30.40;1.00
1413;DHT22;701;52.526;13.408;2023-08-12T11:06:10;30.50;1.00
1413;DHT22;701;52.526;13.408;2023-08-12T11:08:36;30.60;1.00
1413;DHT22;701;52.526;13.408;2023-08-12T11:11:20;30.60;1.00
1413;DHT22;701;52.526;13.408;2023-08-12T11:13:52;30.50;1.00
1413;DHT22;701;52.526;13.408;2023-08-12T11:16:18;30.50;1.00
1413;DHT22;701;52.526;13.408;2023-08-12T11:18:44;30.50;1.00
1413;DHT22;701;52.526;13.408;2023-08-12T11:21:10;30.40;1.00
1413;DHT22;701;52.526;13.408;2023-08-12T11:23:36;30.30;1.00
1413;DHT22;701;52.526;13.408;2023-08-12T11:26:02;30.40;1.00
1413;DHT22;701;52.526;13.408;2023-08-12T11:28:28;30.40;1.00
1413;DHT22;701;52.526;13.408;2023-08-12T11:30:55;30.40;1.00
1413;DHT22;701;52.526;13.408;2023-08-12T11:33:21;30.40;1.00
1413;DHT22;701;52.526;13.408;2023-08-12T11:35:47;30.40;1.00
1413;DHT22;701;52.526;13.408;2023-08-12T11:38:15;30.40;1.00
1413;DHT22;701;52.526;13.408;2023-08-12T11:40:41;30.40;1.00
1413;DHT22;701;52.526;13.408;2023-08-12T11:43:06;30.30;1.00
1413;DHT22;701;52.526;13.408;2023-08-12T11:45:32;30.10;1.00
1413;DHT22;701;52.526;13.408;2023-08-12T11:47:58;29.80;1.00
1413;DHT22;701;52.526;13.408;2023-08-12T11:50:25;29.60;1.00
1413;DHT22;701;52.526;13.408;2023-08-12T11:52:52;29.50;1.00
1413;DHT22;701;52.526;13.408;2023-08-12T11:55:18;29.30;1.20
1413;DHT22;701;52.526;13.408;2023-08-12T11:57:44;29.10;1.40
1413;DHT22;701;52.526;13.408;2023-08-12T12:00:11;29.10;2.00
1413;DHT22;701;52.526;13.408;2023-08-12T12:02:53;29.00;1.90
1413;DHT22;701;52.526;13.408;2023-08-12T12:05:23;29.00;1.90
1413;DHT22;701;52.526;13.408;2023-08-12T12:07:49;29.00;1.90
1413;DHT22;701;52.526;13.408;2023-08-12T12:10:20;28.90;1.90
1413;DHT22;701;52.526;13.408;2023-08-12T12:12:47;29.00;1.90
1413;DHT22;701;52.526;13.408;2023-08-12T12:15:14;29.00;2.00
1413;DHT22;701;52.526;13.408;2023-08-12T12:17:46;29.00;2.40
1413;DHT22;701;52.526;13.408;2023-08-12T12:20:12;29.00;2.60
1413;DHT22;701;52.526;13.408;2023-08-12T12:22:41;29.00;2.60
1413;DHT22;701;52.526;13.408;2023-08-12T12:25:11;29.00;2.50
1413;DHT22;701;52.526;13.408;2023-08-12T12:27:38;29.00;2.50
1413;DHT22;701;52.526;13.408;2023-08-12T12:30:12;28.90;2.70
1413;DHT22;701;52.526;13.408;2023-08-12T12:32:38;28.80;2.70
1413;DHT22;701;52.526;13.408;2023-08-12T12:35:05;28.70;2.90
1413;DHT22;701;52.526;13.408;2023-08-12T12:37:33;28.60;3.10
1413;DHT22;701;52.526;13.408;2023-08-12T12:39:58;28.50;3.30
1413;DHT22;701;52.526;13.408;2023-08-12T12:42:24;28.30;3.50
1413;DHT22;701;52.526;13.408;2023-08-12T12:44:50;28.20;3.80
1413;DHT22;701;52.526;13.408;2023-08-12T12:47:16;28.10;4.00
1413;DHT22;701;52.526;13.408;2023-08-12T12:49:42;28.00;4.20
1413;DHT22;701;52.526;13.408;2023-08-12T12:52:08;28.10;4.40
1413;DHT22;701;52.526;13.408;2023-08-12T12:54:34;28.10;4.70
1413;DHT22;701;52.526;13.408;2023-08-12T12:57:00;28.20;4.40
1413;DHT22;701;52.526;13.408;2023-08-12T12:59:27;28.40;4.10
1413;DHT22;701;52.526;13.408;2023-08-12T13:01:53;28.70;3.80
1413;DHT22;701;52.526;13.408;2023-08-12T13:04:19;29.00;3.30
1413;DHT22;701;52.526;13.408;2023-08-12T13:06:45;29.30;2.60
1413;DHT22;701;52.526;13.408;2023-08-12T13:09:11;29.50;2.10
1413;DHT22;701;52.526;13.408;2023-08-12T13:11:37;29.70;2.30
1413;DHT22;701;52.526;13.408;2023-08-12T13:14:03;29.80;1.80
1413;DHT22;701;52.526;13.408;2023-08-12T13:16:29;30.00;1.60
1413;DHT22;701;52.526;13.408;2023-08-12T13:18:55;30.20;1.40
1413;DHT22;701;52.526;13.408;2023-08-12T13:21:24;30.40;1.20
1413;DHT22;701;52.526;13.408;2023-08-12T13:23:50;30.50;1.00
1413;DHT22;701;52.526;13.408;2023-08-12T13:26:16;30.70;1.00
1413;DHT22;701;52.526;13.408;2023-08-12T13:28:43;30.80;1.00
1413;DHT22;701;52.526;13.408;2023-08-12T13:31:09;30.90;1.00
1413;DHT22;701;52.526;13.408;2023-08-12T13:33:35;31.00;1.00
1413;DHT22;701;52.526;13.408;2023-08-12T13:36:01;31.20;1.00
1413;DHT22;701;52.526;13.408;2023-08-12T13:38:27;31.30;1.00
1413;DHT22;701;52.526;13.408;2023-08-12T13:40:52;31.40;1.00
1413;DHT22;701;52.526;13.408;2023-08-12T13:43:18;31.50;1.00
1413;DHT22;701;52.526;13.408;2023-08-12T13:45:44;31.40;1.00
1413;DHT22;701;52.526;13.408;2023-08-12T13:48:09;31.30;1.00
1413;DHT22;701;52.526;13.408;2023-08-12T13:50:35;31.10;1.00
1413;DHT22;701;52.526;13.408;2023-08-12T13:53:02;31.10;1.00
1413;DHT22;701;52.526;13.408;2023-08-12T13:55:28;31.20;1.00
1413;DHT22;701;52.526;13.408;2023-08-12T13:57:54;31.20;1.00
1413;DHT22;701;52.526;13.408;2023-08-12T14:00:20;31.20;1.00
1413;DHT22;701;52.526;13.408;2023-08-12T14:02:45;31.10;1.00
1413;DHT22;701;52.526;13.408;2023-08-12T14:05:13;31.00;1.00
1413;DHT22;701;52.526;13.408;2023-08-12T14:07:40;30.80;1.00
1413;DHT22;701;52.526;13.408;2023-08-12T14:10:07;30.70;1.00
1413;DHT22;701;52.526;13.408;2023-08-12T14:12:32;30.60;1.00
1413;DHT22;701;52.526;13.408;2023-08-12T14:14:58;30.60;1.00
1413;DHT22;701;52.526;13.408;2023-08-12T14:17:24;30.60;1.00
1413;DHT22;701;52.526;13.408;2023-08-12T14:19:51;30.60;1.00
1413;DHT22;701;52.526;13.408;2023-08-12T14:22:19;30.70;1.00
1413;DHT22;701;52.526;13.408;2023-08-12T14:24:45;30.80;1.00
1413;DHT22;701;52.526;13.408;2023-08-12T14:27:11;30.70;1.00
1413;DHT22;701;52.526;13.408;2023-08-12T14:29:38;30.60;1.00
1413;DHT22;701;52.526;13.408;2023-08-12T14:32:04;30.50;1.00
1413;DHT22;701;52.526;13.408;2023-08-12T14:34:30;30.40;1.00
1413;DHT22;701;52.526;13.408;2023-08-12T14:36:55;30.30;1.00
1413;DHT22;701;52.526;13.408;2023-08-12T14:39:21;30.40;1.00
1413;DHT22;701;52.526;13.408;2023-08-12T14:41:47;30.50;1.00
1413;DHT22;701;52.526;13.408;2023-08-12T14:44:14;30.60;1.00
1413;DHT22;701;52.526;13.408;2023-08-12T14:46:40;30.70;1.00
1413;DHT22;701;52.526;13.408;2023-08-12T14:49:06;30.60;1.00
1413;DHT22;701;52.526;13.408;2023-08-12T14:51:32;30.50;1.00
1413;DHT22;701;52.526;13.408;2023-08-12T14:53:57;30.50;1.00
1413;DHT22;701;52.526;13.408;2023-08-12T14:56:23;30.60;1.00
1413;DHT22;701;52.526;13.408;2023-08-12T14:58:49;30.70;1.00
1413;DHT22;701;52.526;13.408;2023-08-12T15:01:15;30.90;1.00
1413;DHT22;701;52.526;13.408;2023-08-12T15:03:41;31.10;1.00
1413;DHT22;701;52.526;13.408;2023-08-12T15:06:07;31.30;1.00
1413;DHT22;701;52.526;13.408;2023-08-12T15:08:33;31.50;1.00
1413;DHT22;701;52.526;13.408;2023-08-12T15:10:59;31.70;1.00
1413;DHT22;701;52.526;13.408;2023-08-12T15:13:25;31.60;1.00
1413;DHT22;701;52.526;13.408;2023-08-12T15:15:51;31.50;1.00
1413;DHT22;701;52.526;13.408;2023-08-12T15:18:17;31.30;1.00
1413;DHT22;701;52.526;13.408;2023-08-12T15:20:43;31.10;1.00
1413;DHT22;701;52.526;13.408;2023-08-12T15:23:09;30.90;1.00
1413;DHT22;701;52.526;13.408;2023-08-12T15:25:35;30.60;1.00
1413;DHT22;701;52.526;13.408;2023-08-12T15:28:01;30.40;1.00
1413;DHT22;701;52.526;13.408;2023-08-12T15:30:28;30.20;1.00
1413;DHT22;701;52.526;13.408;2023-08-12T15:32:54;30.10;1.00
1413;DHT22;701;52.526;13.408;2023-08-12T15:35:20;30.00;1.00
1413;DHT22;701;52.526;13.408;2023-08-12T15:37:45;30.00;1.00
1413;DHT22;701;52.526;13.408;2023-08-12T15:40:11;29.90;1.00
1413;DHT22;701;52.526;13.408;2023-08-12T15:42:39;30.00;1.00
1413;DHT22;701;52.526;13.408;2023-08-12T15:45:05;29.90;1.00
1413;DHT22;701;52.526;13.408;2023-08-12T15:47:31;30.00;1.00
1413;DHT22;701;52.526;13.408;2023-08-12T15:49:58;30.00;1.00
1413;DHT22;701;52.526;13.408;2023-08-12T15:52:24;29.90;1.00
1413;DHT22;701;52.526;13.408;2023-08-12T15:54:50;29.90;1.00
1413;DHT22;701;52.526;13.408;2023-08-12T15:57:15;29.90;1.00
1413;DHT22;701;52.526;13.408;2023-08-12T15:59:41;30.00;1.00
1413;DHT22;701;52.526;13.408;2023-08-12T16:02:08;30.00;1.00
1413;DHT22;701;52.526;13.408;2023-08-12T16:04:34;30.00;1.00
1413;DHT22;701;52.526;13.408;2023-08-12T16:06:59;29.90;1.00
1413;DHT22;701;52.526;13.408;2023-08-12T16:09:25;29.80;1.00
1413;DHT22;701;52.526;13.408;2023-08-12T16:11:51;29.70;1.00